createdAt,value
2019-03-11T00:01:39.547Z,9.30
2019-03-11T00:04:13.646Z,9.30
2019-03-11T00:06:47.327Z,9.20
2019-03-11T00:09:20.287Z,9.10
2019-03-11T00:11:53.228Z,9.20
2019-03-11T00:14:26.127Z,9.00
2019-03-11T00:16:59.627Z,8.90
2019-03-11T00:19:32.507Z,8.90
2019-03-11T00:22:05.428Z,8.90
2019-03-11T00:24:38.468Z,8.80
2019-03-11T00:27:11.267Z,8.70
2019-03-11T00:29:44.767Z,8.90
2019-03-11T00:32:18.308Z,8.90
2019-03-11T00:34:51.427Z,9.00
2019-03-11T00:37:24.327Z,8.90
2019-03-11T00:39:57.648Z,9.10
2019-03-11T00:42:30.755Z,9.00
2019-03-11T00:45:03.529Z,8.80
2019-03-11T00:47:40.527Z,8.90
2019-03-11T00:50:13.494Z,8.70
2019-03-11T00:52:46.371Z,8.70
2019-03-11T00:55:19.388Z,8.90
2019-03-11T00:57:52.288Z,8.80
2019-03-11T01:00:25.247Z,8.80
2019-03-11T01:02:58.190Z,8.60
2019-03-11T01:05:31.307Z,8.80
2019-03-11T01:08:04.167Z,8.70
2019-03-11T01:10:37.168Z,8.90
2019-03-11T01:13:09.882Z,8.80
2019-03-11T01:15:43.207Z,8.90
2019-03-11T01:18:16.069Z,8.80
2019-03-11T01:20:48.990Z,8.80
2019-03-11T01:23:22.096Z,8.70
2019-03-11T01:25:55.489Z,8.70
2019-03-11T01:28:28.347Z,8.70
2019-03-11T01:31:01.187Z,8.70
2019-03-11T01:33:34.151Z,8.60
2019-03-11T01:36:07.091Z,8.60
2019-03-11T01:38:40.178Z,8.60
2019-03-11T01:41:13.252Z,8.50
2019-03-11T01:43:46.387Z,8.30
2019-03-11T01:46:19.387Z,8.30
2019-03-11T01:48:52.347Z,8.20
2019-03-11T01:51:25.669Z,8.00
2019-03-11T01:53:58.490Z,7.90
2019-03-11T01:56:31.362Z,7.90
2019-03-11T01:59:04.136Z,7.90
2019-03-11T02:01:56.029Z,7.90
2019-03-11T02:04:28.990Z,7.90
2019-03-11T02:07:02.173Z,7.80
2019-03-11T02:09:36.031Z,7.80
2019-03-11T02:12:09.949Z,7.70
2019-03-11T02:14:42.809Z,7.70
2019-03-11T02:17:15.649Z,7.70
2019-03-11T02:19:48.442Z,7.60
2019-03-11T02:22:21.389Z,7.50
2019-03-11T02:24:54.213Z,7.50
2019-03-11T02:27:27.467Z,7.50
2019-03-11T02:30:00.452Z,7.40
2019-03-11T02:32:34.209Z,7.40
2019-03-11T02:35:07.045Z,7.30
2019-03-11T02:37:40.388Z,7.30
2019-03-11T02:40:13.049Z,7.20
2019-03-11T02:42:46.449Z,7.20
2019-03-11T02:45:20.226Z,7.30
2019-03-11T02:47:53.040Z,7.30
2019-03-11T02:50:25.931Z,7.20
2019-03-11T02:52:59.332Z,7.30
2019-03-11T02:55:32.828Z,7.10
2019-03-11T02:58:06.291Z,7.10
2019-03-11T03:00:39.023Z,7.20
2019-03-11T03:03:13.676Z,7.20
2019-03-11T03:05:50.776Z,7.40
2019-03-11T03:08:23.691Z,7.10
2019-03-11T03:10:56.600Z,7.10
2019-03-11T03:13:29.851Z,7.20
2019-03-11T03:16:02.566Z,7.30
2019-03-11T03:18:35.512Z,7.40
2019-03-11T03:21:08.330Z,7.10
2019-03-11T03:23:42.060Z,7.10
2019-03-11T03:26:14.833Z,7.10
2019-03-11T03:28:47.834Z,6.70
2019-03-11T03:31:20.698Z,6.60
2019-03-11T03:33:53.674Z,6.60
2019-03-11T03:36:27.509Z,6.80
2019-03-11T03:39:00.509Z,6.70
2019-03-11T03:41:33.267Z,6.60
2019-03-11T03:44:06.223Z,6.80
2019-03-11T03:46:39.448Z,6.80
2019-03-11T03:49:12.394Z,6.80
2019-03-11T03:51:45.328Z,6.80
2019-03-11T03:54:18.208Z,6.70
2019-03-11T03:56:54.106Z,6.80
2019-03-11T03:59:25.880Z,6.60
2019-03-11T04:01:58.668Z,6.80
2019-03-11T04:04:31.630Z,6.70
2019-03-11T04:07:04.387Z,6.50
2019-03-11T04:09:37.351Z,6.70
2019-03-11T04:12:10.717Z,6.40
2019-03-11T04:14:43.730Z,6.40
2019-03-11T04:17:16.468Z,6.30
2019-03-11T04:19:49.670Z,6.30
2019-03-11T04:22:22.688Z,6.30
2019-03-11T04:24:55.788Z,6.20
2019-03-11T04:27:28.669Z,6.20
2019-03-11T04:30:01.674Z,6.20
2019-03-11T04:32:34.387Z,6.30
2019-03-11T04:35:07.848Z,6.20
2019-03-11T04:37:40.687Z,6.00
2019-03-11T04:40:13.747Z,6.30
2019-03-11T04:42:47.088Z,6.20
2019-03-11T04:45:20.367Z,6.20
2019-03-11T04:47:53.347Z,6.30
2019-03-11T04:50:26.587Z,6.30
2019-03-11T04:52:59.628Z,5.90
2019-03-11T04:55:33.549Z,5.80
2019-03-11T04:58:07.028Z,5.90
2019-03-11T05:00:40.067Z,5.90
2019-03-11T05:03:13.308Z,5.80
2019-03-11T05:05:46.247Z,5.80
2019-03-11T05:08:19.487Z,5.70
2019-03-11T05:10:52.387Z,5.70
2019-03-11T05:13:25.229Z,6.00
2019-03-11T05:15:58.167Z,6.00
2019-03-11T05:18:31.008Z,5.90
2019-03-11T05:21:03.748Z,5.90
2019-03-11T05:23:37.410Z,5.90
2019-03-11T05:26:10.661Z,5.80
2019-03-11T05:28:43.831Z,5.50
2019-03-11T05:31:17.108Z,5.80
2019-03-11T05:33:50.467Z,5.80
2019-03-11T05:36:23.268Z,5.60
2019-03-11T05:38:56.178Z,5.70
2019-03-11T05:41:29.140Z,5.70
2019-03-11T05:44:01.953Z,5.50
2019-03-11T05:46:34.869Z,5.50
2019-03-11T05:49:07.908Z,5.50
2019-03-11T05:51:42.574Z,5.60
2019-03-11T05:54:15.488Z,5.60
2019-03-11T05:56:48.268Z,5.60
2019-03-11T05:59:21.086Z,5.70
2019-03-11T06:01:54.379Z,5.60
2019-03-11T06:04:27.712Z,5.60
2019-03-11T06:07:00.839Z,5.60
2019-03-11T06:09:33.642Z,5.70
2019-03-11T06:12:06.490Z,5.70
2019-03-11T06:14:39.628Z,5.50
2019-03-11T06:17:12.667Z,5.40
2019-03-11T06:19:46.127Z,5.40
2019-03-11T06:22:20.828Z,5.40
2019-03-11T06:24:53.668Z,5.50
2019-03-11T06:27:27.087Z,5.60
2019-03-11T06:29:59.927Z,5.70
2019-03-11T06:32:32.770Z,5.50
2019-03-11T06:35:07.611Z,5.50
2019-03-11T06:37:40.572Z,5.50
2019-03-11T06:40:13.414Z,5.50
2019-03-11T06:42:46.569Z,5.50
2019-03-11T06:45:19.367Z,5.60
2019-03-11T06:47:52.268Z,5.60
2019-03-11T06:50:25.136Z,5.60
2019-03-11T06:52:58.447Z,5.50
2019-03-11T06:55:31.548Z,5.60
2019-03-11T06:58:05.128Z,5.50
2019-03-11T07:00:37.888Z,5.60
2019-03-11T07:03:10.935Z,5.50
2019-03-11T07:05:43.889Z,5.60
2019-03-11T07:08:16.868Z,5.70
2019-03-11T07:10:49.647Z,5.80
2019-03-11T07:13:22.587Z,5.80
2019-03-11T07:15:55.347Z,5.80
2019-03-11T07:18:28.507Z,5.70
2019-03-11T07:21:01.547Z,5.70
2019-03-11T07:23:34.488Z,5.70
2019-03-11T07:26:07.428Z,5.80
2019-03-11T07:28:40.291Z,5.70
2019-03-11T07:31:13.107Z,5.60
2019-03-11T07:33:46.088Z,5.60
2019-03-11T07:36:19.027Z,5.60
2019-03-11T07:38:52.448Z,5.40
2019-03-11T07:41:25.327Z,5.50
2019-03-11T07:43:58.648Z,5.50
2019-03-11T07:46:31.728Z,5.60
2019-03-11T07:49:04.668Z,5.70
2019-03-11T07:51:38.527Z,5.70
2019-03-11T07:54:11.556Z,5.80
2019-03-11T07:56:44.867Z,5.90
2019-03-11T07:59:18.047Z,5.90
2019-03-11T08:01:51.048Z,6.10
2019-03-11T08:04:23.968Z,6.10
2019-03-11T08:06:56.987Z,6.10
2019-03-11T08:09:37.883Z,6.00
2019-03-11T08:12:04.807Z,6.00
2019-03-11T08:14:38.455Z,6.10
2019-03-11T08:17:14.527Z,6.20
2019-03-11T08:19:47.451Z,6.20
2019-03-11T08:22:21.447Z,6.20
2019-03-11T08:24:54.668Z,6.40
2019-03-11T08:27:27.888Z,6.50
2019-03-11T08:30:01.128Z,6.50
2019-03-11T08:32:34.507Z,6.70
2019-03-11T08:35:07.988Z,6.70
2019-03-11T08:37:41.107Z,6.80
2019-03-11T08:40:13.928Z,6.90
2019-03-11T08:42:47.189Z,7.00
2019-03-11T08:45:20.089Z,7.10
2019-03-11T08:47:53.027Z,7.10
2019-03-11T08:50:26.147Z,7.30
2019-03-11T08:52:58.909Z,7.60
2019-03-11T08:55:31.850Z,7.60
2019-03-11T08:58:05.188Z,8.00
2019-03-11T09:00:38.047Z,8.20
2019-03-11T09:03:12.408Z,8.20
2019-03-11T09:05:45.410Z,8.30
2019-03-11T09:08:18.908Z,8.20
2019-03-11T09:10:52.130Z,8.20
2019-03-11T09:13:24.929Z,8.30
2019-03-11T09:15:58.128Z,8.40
2019-03-11T09:18:31.307Z,8.30
2019-03-11T09:21:05.079Z,8.50
2019-03-11T09:23:38.967Z,8.30
2019-03-11T09:26:11.967Z,8.40
2019-03-11T09:28:45.508Z,8.40
2019-03-11T09:31:18.388Z,8.50
2019-03-11T09:33:51.328Z,8.70
2019-03-11T09:36:26.135Z,9.00
2019-03-11T09:38:59.331Z,9.20
2019-03-11T09:41:32.627Z,9.30
2019-03-11T09:44:05.887Z,9.00
2019-03-11T09:46:39.547Z,8.80
2019-03-11T09:49:12.507Z,8.80
2019-03-11T09:51:45.488Z,8.80
2019-03-11T09:54:18.607Z,8.80
2019-03-11T09:56:51.528Z,8.90
2019-03-11T09:59:24.446Z,8.70
2019-03-11T10:01:57.887Z,8.70
2019-03-11T10:04:31.038Z,8.60
2019-03-11T10:07:03.808Z,8.60
2019-03-11T10:09:37.449Z,8.60
2019-03-11T10:12:10.350Z,8.90
2019-03-11T10:14:43.227Z,8.80
2019-03-11T10:17:16.128Z,9.10
2019-03-11T10:19:49.028Z,9.30
2019-03-11T10:22:21.908Z,9.50
2019-03-11T10:24:55.024Z,9.60
2019-03-11T10:27:27.996Z,9.60
2019-03-11T10:30:01.088Z,9.30
2019-03-11T10:32:33.987Z,9.40
2019-03-11T10:35:06.916Z,9.20
2019-03-11T10:37:40.235Z,9.20
2019-03-11T10:40:13.089Z,9.10
2019-03-11T10:42:47.707Z,9.10
2019-03-11T10:45:30.553Z,9.20
2019-03-11T10:47:55.246Z,9.30
2019-03-11T10:50:28.067Z,9.70
2019-03-11T10:53:01.416Z,10.50
2019-03-11T10:55:34.203Z,10.80
2019-03-11T10:58:07.150Z,10.90
2019-03-11T11:00:40.550Z,10.90
2019-03-11T11:03:13.630Z,10.90
2019-03-11T11:05:46.511Z,11.30
2019-03-11T11:08:19.331Z,11.60
2019-03-11T11:10:52.157Z,11.80
2019-03-11T11:13:25.016Z,11.50
2019-03-11T11:15:58.127Z,11.30
2019-03-11T11:18:31.028Z,11.10
2019-03-11T11:21:03.829Z,10.70
2019-03-11T11:23:37.173Z,10.60
2019-03-11T11:26:10.577Z,10.20
2019-03-11T11:28:43.347Z,9.90
2019-03-11T11:31:17.028Z,9.90
2019-03-11T11:33:49.828Z,9.80
2019-03-11T11:36:23.050Z,9.80
2019-03-11T11:38:55.888Z,9.90
2019-03-11T11:41:28.746Z,9.90
2019-03-11T11:44:01.974Z,9.80
2019-03-11T11:46:34.847Z,10.00
2019-03-11T11:49:07.747Z,10.20
2019-03-11T11:51:40.547Z,10.10
2019-03-11T11:54:13.488Z,10.00
2019-03-11T11:56:46.329Z,10.10
2019-03-11T11:59:19.167Z,10.20
2019-03-11T12:02:02.953Z,10.20
2019-03-11T12:04:26.588Z,10.10
2019-03-11T12:06:59.427Z,10.10
2019-03-11T12:09:32.367Z,10.10
2019-03-11T12:12:06.256Z,10.00
2019-03-11T12:14:39.547Z,9.60
2019-03-11T12:17:12.367Z,8.80
2019-03-11T12:19:45.827Z,8.30
2019-03-11T12:22:18.608Z,8.20
2019-03-11T12:24:51.571Z,8.00
2019-03-11T12:27:24.467Z,8.00
2019-03-11T12:29:57.312Z,7.90
2019-03-11T12:32:30.708Z,7.50
2019-03-11T12:35:03.560Z,7.30
2019-03-11T12:37:36.409Z,7.20
2019-03-11T12:40:10.197Z,7.10
2019-03-11T12:42:43.030Z,7.20
2019-03-11T12:45:16.371Z,7.10
2019-03-11T12:47:49.211Z,7.00
2019-03-11T12:50:22.113Z,7.00
2019-03-11T12:52:54.910Z,7.00
2019-03-11T12:55:27.783Z,6.90
2019-03-11T12:58:00.651Z,6.80
2019-03-11T13:00:33.550Z,6.80
2019-03-11T13:03:06.447Z,6.70
2019-03-11T13:05:39.559Z,6.70
2019-03-11T13:08:12.847Z,6.70
2019-03-11T13:10:45.588Z,6.70
2019-03-11T13:13:19.232Z,6.60
2019-03-11T13:15:52.529Z,6.50
2019-03-11T13:18:25.935Z,6.40
2019-03-11T13:20:58.911Z,6.50
2019-03-11T13:23:31.830Z,6.40
2019-03-11T13:26:04.678Z,6.40
2019-03-11T13:28:38.067Z,6.40
2019-03-11T13:31:10.987Z,6.40
2019-03-11T13:33:44.030Z,6.40
2019-03-11T13:36:16.929Z,6.30
2019-03-11T13:38:50.027Z,6.40
2019-03-11T13:41:23.346Z,6.30
2019-03-11T13:43:56.188Z,6.30
2019-03-11T13:46:28.998Z,6.30
2019-03-11T13:49:02.197Z,6.40
2019-03-11T13:51:35.907Z,6.40
2019-03-11T13:54:08.690Z,6.30
2019-03-11T13:56:42.324Z,6.20
2019-03-11T13:59:15.226Z,6.10
2019-03-11T14:01:48.269Z,6.20
2019-03-11T14:04:21.090Z,6.10
2019-03-11T14:06:53.987Z,6.00
2019-03-11T14:09:27.427Z,6.10
2019-03-11T14:12:00.589Z,6.10
2019-03-11T14:14:33.349Z,6.00
2019-03-11T14:17:07.135Z,5.90
2019-03-11T14:19:39.890Z,5.80
2019-03-11T14:22:12.911Z,5.80
2019-03-11T14:24:46.029Z,5.80
2019-03-11T14:27:19.109Z,5.90
2019-03-11T14:29:52.369Z,5.80
2019-03-11T14:32:25.832Z,5.80
2019-03-11T14:34:59.509Z,5.90
2019-03-11T14:37:32.469Z,5.80
2019-03-11T14:40:05.347Z,5.90
2019-03-11T14:42:38.311Z,5.80
2019-03-11T14:45:11.169Z,5.90
2019-03-11T14:47:44.437Z,5.80
2019-03-11T14:50:17.270Z,5.60
2019-03-11T14:52:50.272Z,5.50
2019-03-11T14:55:23.151Z,5.60
2019-03-11T14:57:58.048Z,5.50
2019-03-11T15:00:30.927Z,5.50
2019-03-11T15:03:03.748Z,5.60
2019-03-11T15:05:37.027Z,5.60
2019-03-11T15:08:12.546Z,5.60
2019-03-11T15:10:44.347Z,5.40
2019-03-11T15:13:17.427Z,5.40
2019-03-11T15:15:50.208Z,5.40
2019-03-11T15:18:23.266Z,5.40
2019-03-11T15:20:56.867Z,5.30
2019-03-11T15:23:29.889Z,5.30
2019-03-11T15:26:02.652Z,5.30
2019-03-11T15:28:35.607Z,5.30
2019-03-11T15:31:10.732Z,5.30
2019-03-11T15:33:43.227Z,5.30
2019-03-11T15:36:16.208Z,5.30
2019-03-11T15:38:49.867Z,5.30
2019-03-11T15:41:22.827Z,5.20
2019-03-11T15:43:56.048Z,5.10
2019-03-11T15:46:38.958Z,5.00
2019-03-11T15:49:03.628Z,4.90
2019-03-11T15:51:37.162Z,4.80
2019-03-11T15:54:10.687Z,4.70
2019-03-11T15:56:43.568Z,4.70
2019-03-11T15:59:16.867Z,4.70
2019-03-11T16:01:49.847Z,4.70
2019-03-11T16:04:23.148Z,4.70
2019-03-11T16:06:56.847Z,4.60
2019-03-11T16:09:29.687Z,4.60
2019-03-11T16:12:02.425Z,4.50
2019-03-11T16:14:35.288Z,4.40
2019-03-11T16:17:08.253Z,4.20
2019-03-11T16:19:41.528Z,4.20
2019-03-11T16:22:23.376Z,4.20
2019-03-11T16:24:52.267Z,4.20
2019-03-11T16:27:25.269Z,4.20
2019-03-11T16:29:59.007Z,4.10
2019-03-11T16:32:31.973Z,4.10
2019-03-11T16:35:04.867Z,4.10
2019-03-11T16:37:37.827Z,4.10
2019-03-11T16:40:11.008Z,4.10
2019-03-11T16:42:44.010Z,4.00
2019-03-11T16:45:18.508Z,3.90
2019-03-11T16:47:51.388Z,3.80
2019-03-11T16:50:24.167Z,3.80
2019-03-11T16:52:58.831Z,3.70
2019-03-11T16:55:49.216Z,3.70
2019-03-11T16:58:22.488Z,3.70
2019-03-11T17:00:57.187Z,3.80
2019-03-11T17:03:32.790Z,3.70
2019-03-11T17:06:05.947Z,3.90
2019-03-11T17:08:38.947Z,3.70
2019-03-11T17:11:12.650Z,3.70
2019-03-11T17:13:45.388Z,3.60
2019-03-11T17:16:18.388Z,3.70
2019-03-11T17:18:51.209Z,3.60
2019-03-11T17:21:24.669Z,3.60
2019-03-11T17:23:57.659Z,3.70
2019-03-11T17:26:31.107Z,3.80
2019-03-11T17:29:04.331Z,3.70
2019-03-11T17:31:37.307Z,3.60
2019-03-11T17:34:10.022Z,3.60
2019-03-11T17:36:42.828Z,3.70
2019-03-11T17:39:16.114Z,3.60
2019-03-11T17:41:49.087Z,3.70
2019-03-11T17:44:21.976Z,3.70
2019-03-11T17:46:55.129Z,3.80
2019-03-11T17:49:28.027Z,3.70
2019-03-11T17:52:00.827Z,3.60
2019-03-11T17:54:33.970Z,3.70
2019-03-11T17:57:06.867Z,3.60
2019-03-11T17:59:39.809Z,3.70
2019-03-11T18:02:12.734Z,3.60
2019-03-11T18:04:45.648Z,3.60
2019-03-11T18:07:18.469Z,3.50
2019-03-11T18:09:51.367Z,3.60
2019-03-11T18:12:24.287Z,3.40
2019-03-11T18:14:57.374Z,3.50
2019-03-11T18:17:30.670Z,3.50
2019-03-11T18:20:03.389Z,3.40
2019-03-11T18:22:36.350Z,3.50
2019-03-11T18:25:10.294Z,3.50
2019-03-11T18:27:43.689Z,3.50
2019-03-11T18:30:16.418Z,3.50
2019-03-11T18:32:49.397Z,3.50
2019-03-11T18:35:23.434Z,3.50
2019-03-11T18:38:04.160Z,3.50
2019-03-11T18:40:30.865Z,3.40
2019-03-11T18:43:03.740Z,3.40
2019-03-11T18:45:36.498Z,2.90
2019-03-11T18:48:09.340Z,2.70
2019-03-11T18:50:43.133Z,2.70
2019-03-11T18:53:16.039Z,2.70
2019-03-11T18:55:49.233Z,2.80
2019-03-11T18:58:22.216Z,2.80
2019-03-11T19:00:55.409Z,2.80
2019-03-11T19:03:28.193Z,2.90
2019-03-11T19:06:01.417Z,2.90
2019-03-11T19:08:34.280Z,2.90
2019-03-11T19:11:06.959Z,2.90
2019-03-11T19:13:40.349Z,2.80
2019-03-11T19:16:13.605Z,2.80
2019-03-11T19:18:47.292Z,2.90
2019-03-11T19:21:20.004Z,2.80
2019-03-11T19:23:53.175Z,2.70
2019-03-11T19:26:26.504Z,2.70
2019-03-11T19:28:59.333Z,2.80
2019-03-11T19:31:32.396Z,2.80
2019-03-11T19:34:05.399Z,2.80
2019-03-11T19:36:38.223Z,2.80
2019-03-11T19:39:12.854Z,2.80
2019-03-11T19:41:45.761Z,2.70
2019-03-11T19:44:18.601Z,2.80
2019-03-11T19:46:51.924Z,2.70
2019-03-11T19:49:24.757Z,2.80
2019-03-11T19:51:57.681Z,2.80
2019-03-11T19:54:30.531Z,2.90
2019-03-11T19:57:03.546Z,3.00
2019-03-11T19:59:38.302Z,2.90
2019-03-11T20:02:11.184Z,3.00
2019-03-11T20:04:43.971Z,3.00
2019-03-11T20:07:17.312Z,3.00
2019-03-11T20:09:50.305Z,2.90
2019-03-11T20:12:23.050Z,3.00
2019-03-11T20:14:56.178Z,3.00
2019-03-11T20:17:29.068Z,3.00
2019-03-11T20:20:02.354Z,3.00
2019-03-11T20:22:35.213Z,3.00
2019-03-11T20:25:08.283Z,2.80
2019-03-11T20:27:41.240Z,2.70
2019-03-11T20:30:33.037Z,2.60
2019-03-11T20:33:05.989Z,2.80
2019-03-11T20:35:38.935Z,2.90
2019-03-11T20:38:12.049Z,3.00
2019-03-11T20:40:44.957Z,2.90
2019-03-11T20:43:18.548Z,2.80
2019-03-11T20:45:51.526Z,2.80
2019-03-11T20:48:24.351Z,2.80
2019-03-11T20:50:57.290Z,2.70
2019-03-11T20:53:30.131Z,2.60
2019-03-11T20:56:02.914Z,2.50
2019-03-11T20:58:36.211Z,2.30
2019-03-11T21:01:09.138Z,2.30
2019-03-11T21:03:42.428Z,2.30
2019-03-11T21:06:15.974Z,2.30
2019-03-11T21:08:48.922Z,2.40
2019-03-11T21:11:22.584Z,2.50
2019-03-11T21:13:55.545Z,2.60
2019-03-11T21:16:28.591Z,2.60
2019-03-11T21:19:01.522Z,2.60
2019-03-11T21:21:34.468Z,2.50
2019-03-11T21:24:07.401Z,2.60
2019-03-11T21:26:40.480Z,2.70
2019-03-11T21:29:13.875Z,2.60
2019-03-11T21:31:46.827Z,2.70
2019-03-11T21:34:19.740Z,2.60
2019-03-11T21:36:53.222Z,2.50
2019-03-11T21:39:26.461Z,2.20
2019-03-11T21:41:59.587Z,2.10
2019-03-11T21:44:32.585Z,2.10
2019-03-11T21:47:05.431Z,2.30
2019-03-11T21:49:38.758Z,2.40
2019-03-11T21:52:13.271Z,2.50
2019-03-11T21:54:47.529Z,2.50
2019-03-11T21:57:20.656Z,2.50
2019-03-11T21:59:53.599Z,2.50
2019-03-11T22:02:28.508Z,2.60
2019-03-11T22:05:01.454Z,2.60
2019-03-11T22:07:34.407Z,2.40
2019-03-11T22:10:07.267Z,2.40
2019-03-11T22:12:40.607Z,2.00
2019-03-11T22:15:14.349Z,2.20
2019-03-11T22:17:47.330Z,2.40
2019-03-11T22:20:20.569Z,2.40
2019-03-11T22:22:53.889Z,2.40
2019-03-11T22:25:26.766Z,2.30
2019-03-11T22:27:59.627Z,2.30
2019-03-11T22:30:32.727Z,2.20
2019-03-11T22:33:05.845Z,2.30
2019-03-11T22:35:39.130Z,2.30
2019-03-11T22:38:12.587Z,2.30
2019-03-11T22:40:45.487Z,2.30
2019-03-11T22:43:18.370Z,2.30
2019-03-11T22:45:51.267Z,2.00
2019-03-11T22:48:24.287Z,2.00
2019-03-11T22:50:57.087Z,2.20
2019-03-11T22:53:29.967Z,2.10
2019-03-11T22:56:02.689Z,2.20
2019-03-11T22:58:35.807Z,2.20
2019-03-11T23:01:09.127Z,2.20
2019-03-11T23:03:50.553Z,2.20
2019-03-11T23:06:16.927Z,2.20
2019-03-11T23:08:49.789Z,2.20
2019-03-11T23:11:23.227Z,2.20
2019-03-11T23:13:57.787Z,2.00
2019-03-11T23:16:30.927Z,1.70
2019-03-11T23:19:03.768Z,1.70
2019-03-11T23:21:36.689Z,1.80
2019-03-11T23:24:09.608Z,1.30
2019-03-11T23:26:42.386Z,1.30
2019-03-11T23:29:15.327Z,1.40
2019-03-11T23:31:48.567Z,1.00
2019-03-11T23:34:21.547Z,1.10
2019-03-11T23:36:55.067Z,1.20
2019-03-11T23:39:27.888Z,1.40
2019-03-11T23:42:00.833Z,1.30
2019-03-11T23:44:33.792Z,1.00
2019-03-11T23:47:06.949Z,1.30
2019-03-11T23:49:40.889Z,1.40
2019-03-11T23:52:13.831Z,1.40
2019-03-11T23:54:47.669Z,1.20
2019-03-11T23:57:20.529Z,1.20
2019-03-11T23:59:55.147Z,1.20
